Time;durP1;ratioP1;P1;durP2;ratioP2;P2;SDS_P1;SDS_P2;PMS_P1;PMS_P2;Temp;Humidity;BMP_temperature;BMP_pressure;BME280_temperature;BME280_humidity;BME280_pressure;Samples;Min_cycle;Max_cycle;Signal;HPM_P1;HPM_P2
2022/04/21 00:01:17;;;;;;;4.80;4.10;;;;;;;5.32;73.30;96971.44;4875350;29;20235;-84
2022/04/21 00:03:44;;;;;;;4.20;3.80;;;;;;;5.25;72.24;96945.97;4877820;29;20637;-91
2022/04/21 00:06:11;;;;;;;4.30;3.90;;;;;;;5.30;71.80;96946.66;4890058;29;20204;-88
2022/04/21 00:08:38;;;;;;;4.67;4.20;;;;;;;5.36;73.14;96977.31;4877223;29;20713;-89
2022/04/21 00:11:06;;;;;;;5.70;4.47;;;;;;;5.15;74.52;96965.06;4876725;29;20196;-86
2022/04/21 00:13:35;;;;;;;5.40;3.27;;;;;;;5.19;76.15;97011.16;4876695;29;20196;-83
2022/04/21 00:16:03;;;;;;;3.40;3.10;;;;;;;4.97;76.52;96987.72;4880229;29;20212;-84
2022/04/21 00:18:31;;;;;;;3.80;3.50;;;;;;;4.79;77.71;97006.13;4881553;29;20680;-89
2022/04/21 00:21:01;;;;;;;4.30;3.33;;;;;;;4.46;78.44;96971.03;4877245;29;20324;-84
2022/04/21 00:23:29;;;;;;;6.67;4.27;;;;;;;4.65;78.90;97022.72;4875612;29;21095;-85
2022/04/21 00:25:59;;;;;;;6.23;4.20;;;;;;;4.48;80.36;97015.41;4877474;29;20202;-84
2022/04/21 00:28:32;;;;;;;13.33;7.53;;;;;;;4.43;80.41;97012.09;4876405;29;20204;-85
2022/04/21 00:31:00;;;;;;;4.60;3.47;;;;;;;4.32;81.16;97024.31;4878390;29;20191;-87
2022/04/21 00:33:28;;;;;;;4.27;3.47;;;;;;;4.36;80.86;97015.69;4881818;29;20214;-89
2022/04/21 00:35:58;;;;;;;5.77;4.40;;;;;;;4.49;80.78;97014.53;4877331;29;20228;-91
2022/04/21 00:38:25;;;;;;;7.77;5.63;;;;;;;4.63;80.50;97020.22;4879041;29;20586;-88
2022/04/21 00:40:53;;;;;;;6.93;5.87;;;;;;;4.32;80.56;96993.56;4899795;29;20243;-84
2022/04/21 00:43:22;;;;;;;4.63;4.03;;;;;;;4.38;80.15;97001.13;4902594;29;20189;-88
2022/04/21 00:45:53;;;;;;;4.10;3.50;;;;;;;4.31;80.58;97012.38;4899220;29;20192;-91
2022/04/21 00:48:22;;;;;;;6.10;4.87;;;;;;;4.04;80.65;96979.63;4898994;29;20263;-86
2022/04/21 00:50:49;;;;;;;4.33;3.93;;;;;;;4.04;81.51;96998.44;4897032;29;20191;-84
2022/04/21 00:53:16;;;;;;;4.87;4.07;;;;;;;4.13;81.21;97007.66;4881257;29;20204;-85
2022/04/21 00:55:45;;;;;;;5.00;3.47;;;;;;;4.37;81.04;97045.56;4875972;29;20199;-92
2022/04/21 00:58:15;;;;;;;4.83;3.97;;;;;;;4.10;82.02;97054.66;4873789;29;20260;-90
2022/04/21 01:00:42;;;;;;;3.57;3.23;;;;;;;3.66;82.53;97016.28;4877297;29;20246;-92
2022/04/21 01:03:14;;;;;;;4.13;3.60;;;;;;;3.72;82.98;97046.91;4876813;29;20690;-90
2022/04/21 01:05:44;;;;;;;4.07;3.10;;;;;;;3.51;84.16;97052.41;4844986;29;20286;-86
2022/04/21 01:08:12;;;;;;;3.97;3.40;;;;;;;3.14;84.76;97012.97;4876192;29;20819;-94
2022/04/21 01:10:41;;;;;;;4.40;3.77;;;;;;;3.08;85.31;97036.97;4876738;29;20196;-93
2022/04/21 01:13:10;;;;;;;4.83;4.00;;;;;;;2.93;85.83;97037.19;4877509;29;20200;-88
2022/04/21 01:15:38;;;;;;;3.97;3.57;;;;;;;2.96;86.95;97065.31;4895142;29;20255;-91
2022/04/21 01:18:07;;;;;;;4.33;3.57;;;;;;;2.84;88.14;97062.09;4876984;29;20692;-89
2022/04/21 01:20:34;;;;;;;4.47;3.60;;;;;;;2.52;88.21;97029.31;4875582;29;20188;-92
2022/04/21 01:23:03;;;;;;;5.10;3.70;;;;;;;2.81;88.03;97080.88;4846292;29;20232;-93
2022/04/21 01:25:41;;;;;;;4.33;3.53;;;;;;;2.96;87.92;97082.34;4878742;29;20196;-95
2022/04/21 01:28:12;;;;;;;5.80;4.33;;;;;;;2.78;87.62;97073.22;4882245;29;20342;-89
2022/04/21 01:30:40;;;;;;;4.80;4.30;;;;;;;2.68;88.65;97074.22;4894458;29;20199;-92
2022/04/21 01:33:08;;;;;;;5.10;3.73;;;;;;;2.83;88.51;97079.13;4885138;29;20668;-96
2022/04/21 01:35:37;;;;;;;6.63;4.50;;;;;;;3.02;87.51;97087.38;4875992;29;20291;-92
2022/04/21 01:41:09;;;;;;;5.83;4.20;;;;;;;3.01;87.37;97078.03;4873986;29;20236;-85
2022/04/21 01:43:43;;;;;;;5.40;4.47;;;;;;;3.07;86.83;97072.81;4875429;29;20268;-85
2022/04/21 01:46:11;;;;;;;5.37;4.30;;;;;;;3.14;86.36;97067.56;4872196;29;20747;-84
2022/04/21 01:48:38;;;;;;;5.63;4.87;;;;;;;2.99;86.79;97078.03;4875042;29;20196;-84
2022/04/21 01:51:05;;;;;;;6.23;5.03;;;;;;;2.88;87.21;97054.34;4874463;29;20207;-84
2022/04/21 01:53:32;;;;;;;6.13;4.57;;;;;;;3.00;86.73;97064.38;4873107;29;20196;-83
2022/04/21 01:56:00;;;;;;;7.57;5.90;;;;;;;2.86;86.72;97039.91;4874707;29;20203;-84
2022/04/21 01:58:28;;;;;;;7.53;5.73;;;;;;;2.88;86.46;97039.00;4874496;29;20238;-91
2022/04/21 02:00:55;;;;;;;6.50;5.37;;;;;;;3.22;86.06;97063.16;4875176;29;20243;-87
2022/04/21 02:03:23;;;;;;;6.73;5.03;;;;;;;3.40;85.12;97054.31;4875601;29;20192;-88
2022/04/21 02:05:59;;;;;;;7.03;5.77;;;;;;;3.46;84.79;97055.94;4879206;29;20264;-91
2022/04/21 02:08:27;;;;;;;6.80;6.00;;;;;;;3.54;84.69;97054.06;4886397;29;20192;-90
2022/04/21 02:10:54;;;;;;;6.03;4.63;;;;;;;3.70;84.04;97060.59;4890089;29;20252;-86
2022/04/21 02:13:22;;;;;;;5.43;4.33;;;;;;;3.72;84.16;97062.25;4890582;29;20199;-93
2022/04/21 02:15:49;;;;;;;6.43;5.20;;;;;;;3.69;83.32;97056.38;4875081;29;20194;-91
2022/04/21 02:18:17;;;;;;;9.67;6.40;;;;;;;3.61;83.50;97032.59;4860430;29;20706;-93
2022/04/21 02:20:44;;;;;;;7.10;5.10;;;;;;;3.49;83.56;97032.81;4876620;29;20203;-93
2022/04/21 02:23:11;;;;;;;10.17;6.00;;;;;;;3.47;83.15;97029.44;4877820;29;20643;-90
2022/04/21 02:25:39;;;;;;;8.07;6.17;;;;;;;3.65;83.64;97067.50;4875019;29;20192;-96
2022/04/21 02:28:09;;;;;;;11.23;7.30;;;;;;;3.45;84.01;97067.03;4876013;29;20287;-91
2022/04/21 02:30:37;;;;;;;9.60;7.63;;;;;;;3.68;84.02;97065.75;4876749;29;20203;-95
2022/04/21 02:33:05;;;;;;;8.50;6.77;;;;;;;3.47;83.19;97045.66;4879688;29;20197;-94
2022/04/21 02:35:34;;;;;;;8.43;6.80;;;;;;;3.40;83.85;97041.50;4877533;29;20216;-93
2022/04/21 02:38:01;;;;;;;114.57;40.93;;;;;;;3.56;83.58;97065.13;4875998;29;20208;-90
2022/04/21 02:40:30;;;;;;;24.97;14.17;;;;;;;3.19;83.66;97011.19;4876049;29;20195;-94
2022/04/21 02:42:57;;;;;;;7.07;6.20;;;;;;;3.32;84.72;97048.47;4873988;29;20323;-93
2022/04/21 02:45:25;;;;;;;9.10;6.53;;;;;;;3.36;84.27;97046.72;4875089;29;20286;-90
2022/04/21 02:47:53;;;;;;;11.37;6.97;;;;;;;3.23;84.77;97029.03;4875961;29;20198;-94
2022/04/21 02:50:23;;;;;;;8.20;6.17;;;;;;;3.42;84.88;97044.88;4874160;29;20256;-85
2022/04/21 02:52:52;;;;;;;10.13;6.67;;;;;;;3.16;84.06;97001.84;4891852;29;20590;-94
2022/04/21 02:58:08;;;;;;;12.53;8.17;;;;;;;2.95;86.52;97030.34;4876883;29;20314;-91
2022/04/21 03:00:36;;;;;;;12.73;8.50;;;;;;;2.94;86.90;97033.78;4875171;29;20226;-94
2022/04/21 03:03:04;;;;;;;11.63;8.27;;;;;;;2.98;87.57;97026.91;4875086;29;20235;-92
2022/04/21 03:05:33;;;;;;;11.60;7.67;;;;;;;3.00;86.89;97028.56;4876261;29;20208;-88
2022/04/21 03:08:00;;;;;;;10.17;6.97;;;;;;;2.91;86.72;97018.47;4875257;29;20668;-92
2022/04/21 03:10:27;;;;;;;9.70;7.17;;;;;;;3.19;86.15;97039.34;4880997;29;20207;-84
2022/04/21 03:12:58;;;;;;;10.60;7.30;;;;;;;2.97;85.68;97005.59;4882513;29;20219;-91
2022/04/21 03:15:26;;;;;;;11.77;7.57;;;;;;;2.86;86.58;97037.34;4876396;29;20613;-90
2022/04/21 03:17:56;;;;;;;11.63;7.93;;;;;;;2.49;87.80;97012.31;4859078;29;20203;-93
2022/04/21 03:25:58;;;;;;;14.07;8.20;;;;;;;2.41;88.74;97061.88;4853903;29;20643;-84
2022/04/21 03:28:28;;;;;;;14.50;9.77;;;;;;;2.40;89.58;97072.94;4869685;29;20197;-85
2022/04/21 03:30:55;;;;;;;12.67;9.07;;;;;;;2.40;89.04;97075.50;4862351;29;20295;-83
2022/04/21 03:33:24;;;;;;;13.10;9.23;;;;;;;2.27;89.80;97074.81;4872375;29;20195;-85
2022/04/21 03:35:52;;;;;;;20.83;10.90;;;;;;;2.23;89.77;97090.19;4858248;29;20200;-87
2022/04/21 03:38:19;;;;;;;14.80;10.20;;;;;;;2.04;90.62;97065.75;4853548;29;20265;-83
2022/04/21 03:40:46;;;;;;;16.33;10.43;;;;;;;2.19;90.96;97093.66;4855327;29;20197;-84
2022/04/21 03:43:15;;;;;;;16.23;10.50;;;;;;;1.99;90.54;97063.25;4837453;29;20224;-85
2022/04/21 03:45:42;;;;;;;18.47;10.03;;;;;;;2.09;90.81;97086.97;4855491;29;20208;-84
2022/04/21 03:48:11;;;;;;;17.17;10.17;;;;;;;1.86;90.49;97048.09;4853360;29;20279;-83
2022/04/21 03:50:40;;;;;;;17.87;10.80;;;;;;;2.16;91.02;97076.69;4855365;29;20224;-89
2022/04/21 03:53:07;;;;;;;16.90;10.10;;;;;;;2.33;90.73;97076.44;4858538;29;20189;-93
2022/04/21 03:55:35;;;;;;;18.77;11.50;;;;;;;2.57;89.87;97094.00;4859373;29;20669;-90
2022/04/21 03:58:02;;;;;;;20.80;11.30;;;;;;;2.79;88.40;97072.38;4867066;29;20261;-93
2022/04/21 04:00:30;;;;;;;17.90;10.77;;;;;;;2.91;87.17;97084.13;4878614;29;20199;-94
2022/04/21 04:02:58;;;;;;;22.13;11.87;;;;;;;2.90;86.75;97052.63;4867059;29;20265;-87
2022/04/21 04:05:26;;;;;;;20.87;11.40;;;;;;;3.10;85.79;97067.63;4894548;29;20202;-87
2022/04/21 04:10:53;;;;;;;20.47;11.73;;;;;;;3.80;82.31;97085.16;4893624;29;20196;-88
2022/04/21 04:13:26;;;;;;;21.87;11.73;;;;;;;4.27;80.48;97082.50;4889685;29;20200;-89
2022/04/21 04:15:56;;;;;;;24.47;11.83;;;;;;;4.32;78.75;97078.16;4869334;29;20989;-91
2022/04/21 04:18:23;;;;;;;20.50;12.33;;;;;;;4.10;78.35;97072.59;4843536;29;20191;-90
2022/04/21 04:20:51;;;;;;;24.33;12.20;;;;;;;3.63;79.55;97064.13;4877884;29;20196;-87
2022/04/21 04:23:20;;;;;;;22.20;12.50;;;;;;;3.37;81.32;97063.75;4877005;29;20232;-85
2022/04/21 04:25:47;;;;;;;28.53;13.60;;;;;;;3.50;81.52;97067.81;4876829;29;20193;-89
2022/04/21 04:28:16;;;;;;;22.23;12.90;;;;;;;3.39;81.84;97070.56;4877359;29;20256;-88
2022/04/21 04:30:44;;;;;;;30.13;13.07;;;;;;;3.51;82.24;97069.47;4876313;29;20231;-86
2022/04/21 04:33:18;;;;;;;29.47;14.83;;;;;;;3.59;80.83;97049.69;4877052;29;20209;-88
2022/04/21 04:35:46;;;;;;;33.90;15.13;;;;;;;3.71;80.41;97059.75;4875361;29;20200;-89
2022/04/21 04:38:16;;;;;;;33.20;17.63;;;;;;;3.74;80.95;97067.34;4877638;29;20203;-84
2022/04/21 04:40:44;;;;;;;37.47;17.87;;;;;;;3.87;80.47;97066.25;4876492;29;20195;-87
2022/04/21 04:43:12;;;;;;;42.23;19.50;;;;;;;3.84;80.26;97045.81;4876765;29;20295;-84
2022/04/21 04:48:32;;;;;;;59.30;28.87;;;;;;;3.90;79.53;97058.50;4874574;29;20276;-85
2022/04/21 04:51:02;;;;;;;72.90;31.20;;;;;;;3.12;80.56;96956.75;4875793;29;20210;-85
2022/04/21 04:53:35;;;;;;;87.93;34.63;;;;;;;3.66;80.67;97016.28;4876226;29;20275;-87
2022/04/21 04:56:05;;;;;;;87.40;35.63;;;;;;;4.28;80.16;97068.84;4890707;29;20207;-84
2022/04/21 04:58:36;;;;;;;86.40;35.37;;;;;;;4.85;78.41;97077.81;4877118;29;21004;-89
2022/04/21 05:01:06;;;;;;;93.70;39.67;;;;;;;5.34;76.27;97071.50;4876641;29;20296;-87
2022/04/21 05:03:34;;;;;;;103.77;39.90;;;;;;;5.46;75.27;97081.50;4876623;29;20231;-88
2022/04/21 05:06:02;;;;;;;108.10;44.63;;;;;;;5.32;74.12;97057.88;4863447;29;20237;-84
2022/04/21 05:08:31;;;;;;;124.30;49.93;;;;;;;5.45;73.96;97057.53;4885571;29;20213;-90
2022/04/21 05:11:00;;;;;;;124.37;51.40;;;;;;;5.90;73.99;97082.94;4862062;29;20210;-90
2022/04/21 05:13:30;;;;;;;120.80;46.97;;;;;;;6.01;71.71;97079.19;4878080;29;20255;-90
2022/04/21 05:16:05;;;;;;;111.07;44.30;;;;;;;6.12;71.62;97074.59;4882624;29;20284;-89
2022/04/21 05:18:34;;;;;;;107.30;45.37;;;;;;;6.00;72.56;97054.38;4876945;29;20194;-89
2022/04/21 05:21:02;;;;;;;106.20;44.90;;;;;;;5.97;72.77;97066.47;4875758;29;20567;-90
2022/04/21 05:23:36;;;;;;;115.20;48.37;;;;;;;6.01;72.12;97050.94;4874388;29;20260;-88
2022/04/21 05:26:26;;;;;;;102.33;44.67;;;;;;;6.21;71.41;97055.50;4874740;29;20674;-90
2022/04/21 05:32:05;;;;;;;107.50;48.07;;;;;;;6.23;70.47;97031.44;4877042;29;20198;-89
2022/04/21 05:34:33;;;;;;;111.97;46.87;;;;;;;6.15;72.43;97035.09;4881004;29;20673;-88
2022/04/21 05:37:02;;;;;;;119.37;45.97;;;;;;;6.16;73.26;97060.75;4876448;29;20202;-91
2022/04/21 05:39:31;;;;;;;90.07;41.40;;;;;;;6.15;72.12;97074.53;4891391;29;20208;-90
2022/04/21 05:42:05;;;;;;;93.93;38.60;;;;;;;5.83;73.10;97033.41;4878164;29;20230;-92
2022/04/21 05:44:35;;;;;;;93.40;39.87;;;;;;;6.04;73.84;97066.25;4875089;29;20763;-89
2022/04/21 05:47:03;;;;;;;93.53;40.53;;;;;;;6.45;73.72;97073.63;4876263;29;20217;-89
2022/04/21 05:49:32;;;;;;;80.77;39.03;;;;;;;6.58;72.54;97069.81;4875196;29;20192;-86
2022/04/21 05:52:07;;;;;;;85.97;38.47;;;;;;;6.50;72.70;97058.94;4876599;29;20186;-91
2022/04/21 05:54:48;;;;;;;89.47;39.00;;;;;;;6.83;72.63;97075.06;4876958;29;20952;-92
2022/04/21 05:57:15;;;;;;;81.13;35.10;;;;;;;6.74;72.64;97056.50;4875061;29;20229;-91
2022/04/21 05:59:43;;;;;;;85.10;35.87;;;;;;;6.87;72.70;97070.66;4876635;29;20578;-84
2022/04/21 06:02:12;;;;;;;66.13;32.63;;;;;;;6.93;72.82;97055.88;4874579;29;20234;-84
2022/04/21 06:04:40;;;;;;;78.60;39.60;;;;;;;7.39;71.89;97070.72;4880037;29;20225;-81
2022/04/21 06:07:09;;;;;;;69.23;29.93;;;;;;;7.56;70.16;97059.84;4877849;29;20250;-85
2022/04/21 06:09:38;;;;;;;62.23;29.40;;;;;;;7.87;69.31;97066.47;4874750;29;20200;-87
2022/04/21 06:12:05;;;;;;;66.90;32.80;;;;;;;7.68;68.66;97062.00;4875668;29;20213;-85
2022/04/21 06:14:35;;;;;;;65.47;29.00;;;;;;;7.66;68.79;97064.66;4879659;29;20232;-85
2022/04/21 06:17:08;;;;;;;49.33;23.53;;;;;;;7.49;69.63;97030.03;4898690;29;20194;-84
2022/04/21 06:19:39;;;;;;;40.20;20.17;;;;;;;7.62;68.95;97060.50;4898392;29;20312;-85
2022/04/21 06:22:11;;;;;;;37.27;19.03;;;;;;;7.86;68.36;97088.00;4895290;29;20241;-85
2022/04/21 06:24:39;;;;;;;32.53;15.73;;;;;;;8.05;69.45;97095.94;4891812;29;20188;-85
2022/04/21 06:27:10;;;;;;;28.67;15.23;;;;;;;7.74;67.92;97054.06;4874144;29;20206;-83
2022/04/21 06:29:44;;;;;;;27.37;15.03;;;;;;;7.80;68.00;97066.75;4880904;29;20589;-84
2022/04/21 06:32:16;;;;;;;35.93;17.57;;;;;;;7.81;68.01;97069.25;4873739;29;20192;-85
2022/04/21 06:34:44;;;;;;;30.03;16.53;;;;;;;7.97;68.12;97090.22;4874947;29;20645;-85
2022/04/21 06:37:13;;;;;;;28.77;15.90;;;;;;;8.19;67.03;97065.34;4857745;29;20207;-84
2022/04/21 06:39:47;;;;;;;28.17;15.03;;;;;;;8.35;66.67;97075.97;4875707;29;20234;-84
2022/04/21 06:42:15;;;;;;;30.03;16.30;;;;;;;8.30;66.88;97083.06;4875081;29;20227;-86
2022/04/21 06:50:17;;;;;;;25.17;14.07;;;;;;;8.71;63.27;97095.28;4874347;29;20206;-84
2022/04/21 06:52:44;;;;;;;25.13;13.30;;;;;;;8.45;63.04;97083.31;4875478;29;20206;-86
2022/04/21 06:55:13;;;;;;;22.03;12.17;;;;;;;8.37;64.20;97075.03;4874717;29;20196;-85
2022/04/21 06:57:40;;;;;;;26.30;12.83;;;;;;;8.45;62.85;97048.97;4874561;29;20220;-84
2022/04/21 07:00:09;;;;;;;27.13;14.70;;;;;;;8.92;63.81;97068.66;4875928;29;20267;-84
2022/04/21 07:02:38;;;;;;;24.47;14.03;;;;;;;9.16;62.00;97070.25;4858345;29;20237;-83
2022/04/21 07:05:12;;;;;;;24.10;14.60;;;;;;;9.05;62.68;97061.25;4861569;29;20291;-84
2022/04/21 07:07:43;;;;;;;28.63;13.43;;;;;;;9.14;61.63;97068.63;4872766;29;20191;-84
2022/04/21 07:10:16;;;;;;;34.27;15.57;;;;;;;9.30;61.37;97055.03;4876418;29;20188;-89
2022/04/21 07:12:46;;;;;;;37.83;18.27;;;;;;;9.48;61.40;97048.28;4875162;29;20195;-85
2022/04/21 07:15:15;;;;;;;27.43;13.90;;;;;;;9.36;61.12;97038.44;4878891;29;20195;-89
2022/04/21 07:17:48;;;;;;;22.37;13.33;;;;;;;9.52;61.01;97049.84;4874800;29;20291;-88
2022/04/21 07:20:15;;;;;;;18.80;11.40;;;;;;;9.73;59.95;97044.59;4874457;29;20210;-89
2022/04/21 07:22:43;;;;;;;27.00;12.90;;;;;;;9.50;60.17;96962.00;4875820;29;20215;-85
2022/04/21 07:25:10;;;;;;;20.50;12.67;;;;;;;10.11;59.20;97011.09;4874595;29;20256;-90
2022/04/21 07:27:39;;;;;;;22.37;13.27;;;;;;;10.44;58.50;97051.84;4877036;29;20617;-89
2022/04/21 07:30:08;;;;;;;27.93;12.57;;;;;;;10.41;58.69;97007.13;4878817;29;20208;-88
2022/04/21 07:32:37;;;;;;;32.70;11.93;;;;;;;10.68;57.89;97036.94;4879853;29;20185;-90
2022/04/21 07:35:07;;;;;;;20.40;11.30;;;;;;;10.97;56.44;97044.19;4879010;29;20267;-91
2022/04/21 07:37:37;;;;;;;18.07;9.50;;;;;;;10.93;55.60;97019.34;4877024;29;20231;-88
2022/04/21 07:40:13;;;;;;;15.00;8.43;;;;;;;10.68;54.90;97026.56;4882130;29;20287;-88
2022/04/21 07:42:44;;;;;;;15.13;9.90;;;;;;;10.75;55.79;97040.94;4877465;29;20322;-85
2022/04/21 07:45:17;;;;;;;16.90;11.00;;;;;;;10.83;56.46;97035.38;4880737;29;20202;-84
2022/04/21 07:48:00;;;;;;;17.60;10.33;;;;;;;10.76;55.92;97003.75;4878105;29;20537;-84
2022/04/21 07:50:28;;;;;;;18.07;9.33;;;;;;;11.11;55.61;97028.81;4876322;29;20230;-83
2022/04/21 07:53:19;;;;;;;24.70;11.73;;;;;;;11.07;55.51;97042.84;4865317;29;20579;-83
2022/04/21 07:55:53;;;;;;;19.23;12.17;;;;;;;11.18;56.36;97032.81;4877161;29;20697;-87
2022/04/21 07:58:27;;;;;;;19.37;9.17;;;;;;;11.33;54.95;97037.22;4878718;29;20766;-84
2022/04/21 08:00:58;;;;;;;15.73;9.07;;;;;;;11.39;54.76;97016.22;4893788;29;20289;-86
2022/04/21 08:03:37;;;;;;;16.83;9.37;;;;;;;11.63;53.20;97040.09;4881345;29;20248;-87
2022/04/21 08:06:06;;;;;;;13.87;8.23;;;;;;;11.61;52.96;97033.28;4879688;29;20667;-85
2022/04/21 08:08:36;;;;;;;14.30;9.13;;;;;;;11.66;53.58;97033.91;4877549;29;20198;-86
2022/04/21 08:11:05;;;;;;;14.30;9.37;;;;;;;11.52;53.45;97021.59;4879466;29;20200;-85
2022/04/21 08:13:41;;;;;;;27.00;10.80;;;;;;;11.80;53.64;97037.53;4879512;29;20211;-86
2022/04/21 08:16:08;;;;;;;16.30;8.97;;;;;;;11.82;52.89;97042.63;4879457;29;20224;-86
2022/04/21 08:18:39;;;;;;;13.43;8.10;;;;;;;11.82;52.34;97040.88;4893964;29;20212;-85
2022/04/21 08:21:10;;;;;;;14.47;9.07;;;;;;;11.90;53.31;97043.91;4897727;29;20201;-86
2022/04/21 08:33:11;;;;;;;17.90;8.90;;;;;;;12.27;51.17;97048.91;4894674;29;20530;-87
2022/04/21 08:35:38;;;;;;;13.90;8.10;;;;;;;12.27;51.34;97037.66;4893857;29;20190;-84
2022/04/21 08:38:09;;;;;;;18.87;7.43;;;;;;;12.48;51.07;97056.47;4889180;29;20201;-84
2022/04/21 08:40:42;;;;;;;9.53;7.07;;;;;;;12.25;49.25;97048.13;4886113;29;20228;-85
2022/04/21 08:43:16;;;;;;;11.20;7.17;;;;;;;12.38;48.22;97058.72;4870856;29;20249;-85
2022/04/21 08:46:04;;;;;;;14.67;8.23;;;;;;;12.63;47.78;97061.69;4887214;29;20269;-84
2022/04/21 08:48:34;;;;;;;10.23;6.43;;;;;;;12.59;48.52;97067.16;4888794;29;20194;-84
2022/04/21 08:51:08;;;;;;;8.67;6.97;;;;;;;12.40;48.26;97043.91;4888277;29;20199;-83
2022/04/21 08:53:38;;;;;;;15.00;8.73;;;;;;;12.37;48.30;97030.22;4884811;29;20277;-86
2022/04/21 08:56:10;;;;;;;9.77;5.50;;;;;;;12.47;45.77;97073.81;4879036;29;20217;-85
2022/04/21 08:58:37;;;;;;;11.50;5.60;;;;;;;12.50;45.47;97065.88;4879234;29;20213;-84
2022/04/21 09:01:12;;;;;;;9.00;6.20;;;;;;;12.55;45.70;97027.47;4880569;29;20198;-84
2022/04/21 09:03:48;;;;;;;12.77;7.33;;;;;;;12.68;47.03;97051.03;4886377;29;20322;-84
2022/04/21 09:06:42;;;;;;;12.03;7.27;;;;;;;12.80;46.87;97061.63;4879847;29;20227;-88
2022/04/21 09:09:17;;;;;;;14.30;6.77;;;;;;;12.85;47.58;97062.22;4877218;29;20209;-83
2022/04/21 09:11:52;;;;;;;10.70;7.80;;;;;;;12.61;48.76;97036.72;4876770;29;20262;-89
2022/04/21 09:14:52;;;;;;;13.90;8.23;;;;;;;13.02;48.48;97059.50;4876492;29;20567;-85
2022/04/21 09:17:37;;;;;;;10.73;6.70;;;;;;;13.01;45.54;97057.84;4876076;29;20668;-88
2022/04/21 09:20:05;;;;;;;4.93;4.00;;;;;;;12.87;41.63;97042.19;4877227;29;20209;-85
2022/04/21 09:22:35;;;;;;;7.80;5.00;;;;;;;12.97;40.11;97048.56;4875232;29;20244;-85
2022/04/21 09:25:02;;;;;;;7.03;4.80;;;;;;;13.28;39.22;97052.91;4875956;29;20195;-89
2022/04/21 09:27:43;;;;;;;5.43;4.00;;;;;;;12.93;37.15;97060.03;4875836;29;20240;-88
2022/04/21 09:30:16;;;;;;;6.77;4.97;;;;;;;12.68;39.35;97041.50;4877025;29;20731;-91
2022/04/21 09:33:05;;;;;;;8.43;4.23;;;;;;;12.72;40.57;97050.81;4879987;29;20261;-89
2022/04/21 09:35:33;;;;;;;4.63;3.87;;;;;;;12.67;44.46;97051.97;4876583;29;20215;-87
2022/04/21 09:38:04;;;;;;;4.73;3.73;;;;;;;13.13;45.75;97058.16;4877745;29;20193;-86
2022/04/21 09:40:36;;;;;;;6.70;5.30;;;;;;;13.34;46.02;97059.53;4857863;29;20218;-86
2022/04/21 09:43:08;;;;;;;5.60;3.60;;;;;;;13.65;47.43;97054.25;4878380;29;20319;-86
2022/04/21 09:48:33;;;;;;;7.87;4.47;;;;;;;14.06;44.97;97049.22;4877865;29;20274;-83
2022/04/21 09:51:12;;;;;;;4.57;3.67;;;;;;;13.41;50.50;97025.28;4878716;29;20192;-84
2022/04/21 09:53:58;;;;;;;8.93;4.57;;;;;;;13.69;50.80;97014.13;4877696;29;20239;-86
2022/04/21 09:56:33;;;;;;;6.37;4.70;;;;;;;14.00;49.35;97028.75;4878590;29;20250;-84
2022/04/21 09:59:08;;;;;;;8.13;5.13;;;;;;;13.99;49.17;97035.75;4877781;29;20199;-85
2022/04/21 10:01:41;;;;;;;5.67;4.03;;;;;;;13.11;48.20;97013.19;4878171;29;20196;-84
2022/04/21 10:04:17;;;;;;;7.80;5.20;;;;;;;13.43;48.27;97035.59;4881226;29;20283;-83
2022/04/21 10:06:47;;;;;;;7.77;6.70;;;;;;;13.48;48.26;97031.81;4877415;29;20242;-87
2022/04/21 10:09:19;;;;;;;5.57;4.67;;;;;;;13.40;47.20;96999.34;4879103;29;20215;-84
2022/04/21 10:11:58;;;;;;;5.37;4.43;;;;;;;13.49;47.23;97004.88;4878672;29;20189;-86
2022/04/21 10:14:29;;;;;;;5.70;4.27;;;;;;;13.22;48.18;97013.41;4878032;29;20214;-85
2022/04/21 10:17:07;;;;;;;5.07;4.30;;;;;;;13.05;49.07;97023.00;4879682;29;20190;-84
2022/04/21 10:19:42;;;;;;;5.67;4.27;;;;;;;13.39;48.55;97023.69;4877060;29;20784;-84
2022/04/21 10:22:26;;;;;;;4.23;3.80;;;;;;;13.28;48.51;97019.09;4877179;29;20225;-88
2022/04/21 10:25:03;;;;;;;5.20;4.23;;;;;;;13.34;47.72;97012.69;4877540;29;20278;-84
2022/04/21 10:27:47;;;;;;;4.70;4.20;;;;;;;13.28;49.24;97013.91;4878670;29;20199;-86
2022/04/21 10:30:25;;;;;;;4.47;3.70;;;;;;;12.95;50.44;97008.81;4862990;29;20207;-85
2022/04/21 10:32:59;;;;;;;4.57;3.80;;;;;;;13.03;50.26;96980.63;4875786;29;20218;-84
2022/04/21 10:35:36;;;;;;;4.03;3.30;;;;;;;13.30;50.11;97016.41;4879005;29;20202;-84
2022/04/21 10:38:19;;;;;;;5.97;4.30;;;;;;;13.24;49.03;96978.59;4879374;29;20203;-85
2022/04/21 10:41:10;;;;;;;6.63;4.03;;;;;;;13.42;49.15;97013.09;4877506;29;20268;-84
2022/04/21 10:43:54;;;;;;;5.00;4.27;;;;;;;13.84;49.17;97001.06;4890911;29;20250;-85
2022/04/21 10:50:19;;;;;;;6.90;4.20;;;;;;;13.98;48.85;96992.41;4893660;29;20612;-88
2022/04/21 10:58:34;;;;;;;5.30;4.47;;;;;;;14.27;48.94;97009.72;4878714;29;20291;-85
2022/04/21 11:01:28;;;;;;;5.73;4.03;;;;;;;14.14;48.86;97008.78;4862444;29;20200;-84
2022/04/21 11:04:16;;;;;;;6.37;5.17;;;;;;;14.32;48.40;96994.66;4882129;29;20242;-87
2022/04/21 11:07:13;;;;;;;5.93;4.23;;;;;;;14.21;48.59;97004.88;4872955;29;20295;-84
2022/04/21 11:09:46;;;;;;;6.60;3.83;;;;;;;13.87;49.03;96982.63;4881788;29;20256;-84
2022/04/21 11:12:49;;;;;;;5.07;3.63;;;;;;;13.95;48.86;97010.81;4857180;29;20204;-87
2022/04/21 11:15:53;;;;;;;3.67;3.17;;;;;;;14.10;47.34;97004.69;4884057;29;20190;-88
2022/04/21 11:18:33;;;;;;;4.87;3.90;;;;;;;13.92;48.45;96994.53;4885822;29;20250;-89
2022/04/21 11:21:28;;;;;;;4.80;3.97;;;;;;;13.95;49.82;96995.19;4868599;29;20217;-88
2022/04/21 11:24:11;;;;;;;5.53;3.90;;;;;;;13.97;49.51;96995.97;4882972;29;20238;-84
2022/04/21 11:26:43;;;;;;;4.10;3.70;;;;;;;13.98;49.37;96989.81;4880161;29;20196;-86
2022/04/21 11:30:17;;;;;;;5.50;4.23;;;;;;;14.17;48.97;96976.50;4878164;29;20214;-86
2022/04/21 11:32:54;;;;;;;5.40;4.30;;;;;;;14.31;47.26;96977.38;4879149;29;20188;-85
2022/04/21 11:35:26;;;;;;;6.53;4.13;;;;;;;14.48;47.74;96995.41;4864363;29;20230;-84
2022/04/21 11:37:59;;;;;;;8.23;3.83;;;;;;;14.63;48.00;96984.03;4877577;29;20207;-87
2022/04/21 11:40:45;;;;;;;7.03;4.00;;;;;;;14.97;46.56;96980.13;4877665;29;20259;-87
2022/04/21 11:43:19;;;;;;;3.90;3.50;;;;;;;15.18;46.81;96977.91;4859215;29;20285;-87
2022/04/21 11:45:59;;;;;;;5.60;4.13;;;;;;;14.73;48.16;96962.59;4879549;29;20191;-86
2022/04/21 11:48:29;;;;;;;4.67;3.50;;;;;;;14.79;47.48;96968.25;4879171;29;20223;-85
2022/04/21 11:50:57;;;;;;;4.83;3.33;;;;;;;14.58;48.37;96975.66;4877708;29;20196;-84
2022/04/21 11:53:33;;;;;;;5.80;4.93;;;;;;;14.73;48.45;96962.59;4877406;29;20208;-86
2022/04/21 11:56:04;;;;;;;3.90;3.30;;;;;;;14.52;47.95;96959.56;4861251;29;20690;-87
2022/04/21 11:58:38;;;;;;;4.23;3.83;;;;;;;14.54;49.33;96966.38;4877868;29;20231;-85
2022/04/21 12:06:57;;;;;;;16.50;8.70;;;;;;;14.17;49.72;96966.09;4882901;29;20228;-86
2022/04/21 12:09:29;;;;;;;15.93;8.53;;;;;;;14.01;49.47;96931.50;4882370;29;20196;-86
2022/04/21 12:11:59;;;;;;;4.87;3.33;;;;;;;14.04;49.44;96941.72;4877812;29;20208;-85
2022/04/21 12:14:28;;;;;;;5.73;4.07;;;;;;;13.95;48.87;96908.44;4862932;29;20209;-85
2022/04/21 12:17:06;;;;;;;3.63;2.90;;;;;;;13.91;48.67;96904.38;4877688;29;20581;-86
2022/04/21 12:19:39;;;;;;;4.13;3.37;;;;;;;14.08;49.73;96933.63;4881062;29;20800;-89
2022/04/21 12:22:19;;;;;;;4.57;3.73;;;;;;;14.32;49.99;96933.94;4876646;29;20290;-86
2022/04/21 12:24:50;;;;;;;5.67;3.47;;;;;;;14.38;50.73;96930.94;4878139;29;20714;-87
2022/04/21 12:27:29;;;;;;;3.53;3.10;;;;;;;14.73;49.74;96926.94;4878110;29;20194;-85
2022/04/21 12:30:07;;;;;;;4.33;3.93;;;;;;;14.73;49.62;96915.69;4862245;29;20200;-86
2022/04/21 12:32:46;;;;;;;6.93;4.43;;;;;;;14.98;49.77;96926.22;4879829;29;20195;-84
2022/04/21 12:35:49;;;;;;;4.13;3.73;;;;;;;14.84;50.07;96934.09;4879899;29;20188;-86
2022/04/21 12:41:15;;;;;;;4.20;3.80;;;;;;;14.69;49.98;96925.47;4879034;29;20263;-87
2022/04/21 12:43:44;;;;;;;5.27;4.10;;;;;;;14.34;50.61;96887.78;4877164;29;20587;-88
2022/04/21 12:46:17;;;;;;;4.17;3.77;;;;;;;14.68;50.61;96922.03;4879093;29;20204;-88
2022/04/21 12:48:49;;;;;;;4.73;3.80;;;;;;;14.70;50.86;96919.31;4880162;29;20282;-90
2022/04/21 12:51:21;;;;;;;5.57;4.60;;;;;;;14.97;50.93;96916.69;4880331;29;20642;-89